sensor_id;sensor_type;location;lat;lon;timestamp;temperature;humidity
5172;DHT22;2605;49.770;9.868;2023-07-08T00:00:28;18.80;99.90
5172;DHT22;2605;49.770;9.868;2023-07-08T00:02:53;18.70;99.90
5172;DHT22;2605;49.770;9.868;2023-07-08T00:05:20;18.80;99.90
5172;DHT22;2605;49.770;9.868;2023-07-08T00:07:47;18.70;99.90
5172;DHT22;2605;49.770;9.868;2023-07-08T00:12:44;18.60;99.90
5172;DHT22;2605;49.770;9.868;2023-07-08T00:15:11;18.60;99.90
5172;DHT22;2605;49.770;9.868;2023-07-08T00:17:37;18.50;99.90
5172;DHT22;2605;49.770;9.868;2023-07-08T00:20:14;18.50;99.90
5172;DHT22;2605;49.770;9.868;2023-07-08T00:22:42;18.40;99.90
5172;DHT22;2605;49.770;9.868;2023-07-08T00:25:08;18.30;99.90
5172;DHT22;2605;49.770;9.868;2023-07-08T00:27:34;18.30;99.90
5172;DHT22;2605;49.770;9.868;2023-07-08T00:29:59;18.30;99.90
5172;DHT22;2605;49.770;9.868;2023-07-08T00:32:25;18.20;99.90
5172;DHT22;2605;49.770;9.868;2023-07-08T00:34:51;18.30;99.90
5172;DHT22;2605;49.770;9.868;2023-07-08T00:37:16;18.30;99.90
5172;DHT22;2605;49.770;9.868;2023-07-08T00:39:42;18.20;99.90
5172;DHT22;2605;49.770;9.868;2023-07-08T00:42:24;18.20;99.90
5172;DHT22;2605;49.770;9.868;2023-07-08T00:44:49;18.20;99.90
5172;DHT22;2605;49.770;9.868;2023-07-08T00:47:15;18.20;99.90
5172;DHT22;2605;49.770;9.868;2023-07-08T00:54:44;17.90;99.90
5172;DHT22;2605;49.770;9.868;2023-07-08T00:57:10;17.90;99.90
5172;DHT22;2605;49.770;9.868;2023-07-08T00:59:40;18.00;99.90
5172;DHT22;2605;49.770;9.868;2023-07-08T01:02:10;18.00;99.90
5172;DHT22;2605;49.770;9.868;2023-07-08T01:05:01;18.00;99.90
5172;DHT22;2605;49.770;9.868;2023-07-08T01:07:30;18.00;99.90
5172;DHT22;2605;49.770;9.868;2023-07-08T01:10:02;18.00;99.90
5172;DHT22;2605;49.770;9.868;2023-07-08T01:12:33;18.10;99.90
5172;DHT22;2605;49.770;9.868;2023-07-08T01:15:01;18.10;99.90
5172;DHT22;2605;49.770;9.868;2023-07-08T01:17:28;18.10;99.90
5172;DHT22;2605;49.770;9.868;2023-07-08T01:20:01;18.10;99.90
5172;DHT22;2605;49.770;9.868;2023-07-08T01:22:31;18.10;99.90
5172;DHT22;2605;49.770;9.868;2023-07-08T01:24:58;18.00;99.90
5172;DHT22;2605;49.770;9.868;2023-07-08T01:27:30;18.00;99.90
5172;DHT22;2605;49.770;9.868;2023-07-08T01:29:56;18.00;99.90
5172;DHT22;2605;49.770;9.868;2023-07-08T01:32:23;17.90;99.90
5172;DHT22;2605;49.770;9.868;2023-07-08T01:34:48;17.90;99.90
5172;DHT22;2605;49.770;9.868;2023-07-08T01:37:33;18.00;99.90
5172;DHT22;2605;49.770;9.868;2023-07-08T01:42:55;17.90;99.90
5172;DHT22;2605;49.770;9.868;2023-07-08T01:45:23;17.80;99.90
5172;DHT22;2605;49.770;9.868;2023-07-08T01:48:04;17.80;99.90
5172;DHT22;2605;49.770;9.868;2023-07-08T01:50:32;17.70;99.90
5172;DHT22;2605;49.770;9.868;2023-07-08T01:53:02;17.70;99.90
5172;DHT22;2605;49.770;9.868;2023-07-08T01:55:29;17.60;99.90
5172;DHT22;2605;49.770;9.868;2023-07-08T01:57:55;17.50;99.90
5172;DHT22;2605;49.770;9.868;2023-07-08T02:00:21;17.50;99.90
5172;DHT22;2605;49.770;9.868;2023-07-08T02:02:48;17.50;99.90
5172;DHT22;2605;49.770;9.868;2023-07-08T02:05:14;17.40;99.90
5172;DHT22;2605;49.770;9.868;2023-07-08T02:07:40;17.50;99.90
5172;DHT22;2605;49.770;9.868;2023-07-08T02:10:06;17.40;99.90
5172;DHT22;2605;49.770;9.868;2023-07-08T02:12:31;17.40;99.90
5172;DHT22;2605;49.770;9.868;2023-07-08T02:15:00;17.40;99.90
5172;DHT22;2605;49.770;9.868;2023-07-08T02:17:26;17.40;99.90
5172;DHT22;2605;49.770;9.868;2023-07-08T02:19:54;17.40;99.90
5172;DHT22;2605;49.770;9.868;2023-07-08T02:22:20;17.50;99.90
5172;DHT22;2605;49.770;9.868;2023-07-08T02:24:45;17.30;99.90
5172;DHT22;2605;49.770;9.868;2023-07-08T02:27:10;17.40;99.90
5172;DHT22;2605;49.770;9.868;2023-07-08T02:29:36;17.30;99.90
5172;DHT22;2605;49.770;9.868;2023-07-08T02:32:03;17.30;99.90
5172;DHT22;2605;49.770;9.868;2023-07-08T02:34:29;17.20;99.90
5172;DHT22;2605;49.770;9.868;2023-07-08T02:36:54;17.20;99.90
5172;DHT22;2605;49.770;9.868;2023-07-08T02:39:21;17.10;99.90
5172;DHT22;2605;49.770;9.868;2023-07-08T02:41:47;17.10;99.90
5172;DHT22;2605;49.770;9.868;2023-07-08T02:44:12;17.00;99.90
5172;DHT22;2605;49.770;9.868;2023-07-08T02:46:38;17.00;99.90
5172;DHT22;2605;49.770;9.868;2023-07-08T02:49:03;16.90;99.90
5172;DHT22;2605;49.770;9.868;2023-07-08T02:51:29;16.90;99.90
5172;DHT22;2605;49.770;9.868;2023-07-08T02:53:55;16.80;99.90
5172;DHT22;2605;49.770;9.868;2023-07-08T02:56:20;16.70;99.90
5172;DHT22;2605;49.770;9.868;2023-07-08T02:58:48;16.70;99.90
5172;DHT22;2605;49.770;9.868;2023-07-08T03:01:14;16.70;99.90
5172;DHT22;2605;49.770;9.868;2023-07-08T03:03:46;16.60;99.90
5172;DHT22;2605;49.770;9.868;2023-07-08T03:06:12;16.60;99.90
5172;DHT22;2605;49.770;9.868;2023-07-08T03:08:37;16.60;99.90
5172;DHT22;2605;49.770;9.868;2023-07-08T03:11:05;16.50;99.90
5172;DHT22;2605;49.770;9.868;2023-07-08T03:13:31;16.50;99.90
5172;DHT22;2605;49.770;9.868;2023-07-08T03:15:58;16.40;99.90
5172;DHT22;2605;49.770;9.868;2023-07-08T03:18:27;16.50;99.90
5172;DHT22;2605;49.770;9.868;2023-07-08T03:20:55;16.50;99.90
5172;DHT22;2605;49.770;9.868;2023-07-08T03:23:22;16.50;99.90
5172;DHT22;2605;49.770;9.868;2023-07-08T03:25:47;16.60;99.90
5172;DHT22;2605;49.770;9.868;2023-07-08T03:28:13;16.50;99.90
5172;DHT22;2605;49.770;9.868;2023-07-08T03:30:41;16.50;99.90
5172;DHT22;2605;49.770;9.868;2023-07-08T03:33:07;16.50;99.90
5172;DHT22;2605;49.770;9.868;2023-07-08T03:35:33;16.50;99.90
5172;DHT22;2605;49.770;9.868;2023-07-08T03:37:59;16.40;99.90
5172;DHT22;2605;49.770;9.868;2023-07-08T03:40:24;16.40;99.90
5172;DHT22;2605;49.770;9.868;2023-07-08T03:42:50;16.40;99.90
5172;DHT22;2605;49.770;9.868;2023-07-08T03:45:15;16.40;99.90
5172;DHT22;2605;49.770;9.868;2023-07-08T03:47:41;16.30;99.90
5172;DHT22;2605;49.770;9.868;2023-07-08T03:50:15;16.30;99.90
5172;DHT22;2605;49.770;9.868;2023-07-08T03:52:41;16.30;99.90
5172;DHT22;2605;49.770;9.868;2023-07-08T03:55:09;16.30;99.90
5172;DHT22;2605;49.770;9.868;2023-07-08T03:57:35;16.30;99.90
5172;DHT22;2605;49.770;9.868;2023-07-08T04:00:01;16.30;99.90
5172;DHT22;2605;49.770;9.868;2023-07-08T04:02:26;16.20;99.90
5172;DHT22;2605;49.770;9.868;2023-07-08T04:04:52;16.30;99.90
5172;DHT22;2605;49.770;9.868;2023-07-08T04:07:17;16.30;99.90
5172;DHT22;2605;49.770;9.868;2023-07-08T04:09:43;16.40;99.90
5172;DHT22;2605;49.770;9.868;2023-07-08T04:12:12;16.40;99.90
5172;DHT22;2605;49.770;9.868;2023-07-08T04:14:37;16.50;99.90
5172;DHT22;2605;49.770;9.868;2023-07-08T04:17:07;16.50;99.90
5172;DHT22;2605;49.770;9.868;2023-07-08T04:19:33;16.60;99.90
5172;DHT22;2605;49.770;9.868;2023-07-08T04:22:01;16.60;99.90
5172;DHT22;2605;49.770;9.868;2023-07-08T04:24:27;16.70;99.90
5172;DHT22;2605;49.770;9.868;2023-07-08T04:26:52;16.80;99.90
5172;DHT22;2605;49.770;9.868;2023-07-08T04:29:20;16.90;99.90
5172;DHT22;2605;49.770;9.868;2023-07-08T04:31:46;16.90;99.90
5172;DHT22;2605;49.770;9.868;2023-07-08T04:34:13;17.00;99.90
5172;DHT22;2605;49.770;9.868;2023-07-08T04:36:38;17.00;99.90
5172;DHT22;2605;49.770;9.868;2023-07-08T04:39:05;17.10;99.90
5172;DHT22;2605;49.770;9.868;2023-07-08T04:41:31;17.10;99.90
5172;DHT22;2605;49.770;9.868;2023-07-08T04:43:57;17.20;99.90
5172;DHT22;2605;49.770;9.868;2023-07-08T04:46:33;17.30;99.90
5172;DHT22;2605;49.770;9.868;2023-07-08T04:49:05;17.40;99.90
5172;DHT22;2605;49.770;9.868;2023-07-08T04:51:31;17.40;99.90
5172;DHT22;2605;49.770;9.868;2023-07-08T04:53:57;17.50;99.90
5172;DHT22;2605;49.770;9.868;2023-07-08T04:56:24;17.60;99.90
5172;DHT22;2605;49.770;9.868;2023-07-08T04:58:50;17.70;99.90
5172;DHT22;2605;49.770;9.868;2023-07-08T05:01:16;17.70;99.90
5172;DHT22;2605;49.770;9.868;2023-07-08T05:03:41;17.80;99.90
5172;DHT22;2605;49.770;9.868;2023-07-08T05:06:07;17.90;99.90
5172;DHT22;2605;49.770;9.868;2023-07-08T05:08:32;18.00;99.90
5172;DHT22;2605;49.770;9.868;2023-07-08T05:10:58;18.00;99.90
5172;DHT22;2605;49.770;9.868;2023-07-08T05:13:24;18.10;99.90
5172;DHT22;2605;49.770;9.868;2023-07-08T05:15:50;18.30;99.90
5172;DHT22;2605;49.770;9.868;2023-07-08T05:18:15;18.30;99.90
5172;DHT22;2605;49.770;9.868;2023-07-08T05:20:41;18.40;99.90
5172;DHT22;2605;49.770;9.868;2023-07-08T05:23:08;18.60;99.90
5172;DHT22;2605;49.770;9.868;2023-07-08T05:25:34;18.70;99.90
5172;DHT22;2605;49.770;9.868;2023-07-08T05:28:00;18.90;99.90
5172;DHT22;2605;49.770;9.868;2023-07-08T05:30:25;19.00;99.90
5172;DHT22;2605;49.770;9.868;2023-07-08T05:32:51;19.10;99.90
5172;DHT22;2605;49.770;9.868;2023-07-08T05:35:18;19.30;99.90
5172;DHT22;2605;49.770;9.868;2023-07-08T05:37:43;19.40;99.90
5172;DHT22;2605;49.770;9.868;2023-07-08T05:40:12;19.60;99.90
5172;DHT22;2605;49.770;9.868;2023-07-08T05:42:37;19.70;99.90
5172;DHT22;2605;49.770;9.868;2023-07-08T05:45:04;19.80;99.90
5172;DHT22;2605;49.770;9.868;2023-07-08T05:47:31;19.90;99.90
5172;DHT22;2605;49.770;9.868;2023-07-08T05:49:57;20.00;99.90
5172;DHT22;2605;49.770;9.868;2023-07-08T05:52:22;20.10;99.90
5172;DHT22;2605;49.770;9.868;2023-07-08T05:54:48;20.10;99.90
5172;DHT22;2605;49.770;9.868;2023-07-08T05:57:13;20.20;99.90
5172;DHT22;2605;49.770;9.868;2023-07-08T05:59:39;20.20;99.90
5172;DHT22;2605;49.770;9.868;2023-07-08T06:02:06;20.20;99.90
5172;DHT22;2605;49.770;9.868;2023-07-08T06:04:32;20.20;99.90
5172;DHT22;2605;49.770;9.868;2023-07-08T06:06:57;20.30;99.90
5172;DHT22;2605;49.770;9.868;2023-07-08T06:09:23;20.40;99.90
5172;DHT22;2605;49.770;9.868;2023-07-08T06:11:49;20.40;99.90
5172;DHT22;2605;49.770;9.868;2023-07-08T06:14:14;20.40;99.90
5172;DHT22;2605;49.770;9.868;2023-07-08T06:16:40;20.40;99.90
5172;DHT22;2605;49.770;9.868;2023-07-08T06:19:05;20.50;99.90
5172;DHT22;2605;49.770;9.868;2023-07-08T06:21:31;20.60;99.90
5172;DHT22;2605;49.770;9.868;2023-07-08T06:23:57;20.60;99.90
5172;DHT22;2605;49.770;9.868;2023-07-08T06:26:22;20.60;99.90
5172;DHT22;2605;49.770;9.868;2023-07-08T06:28:49;20.60;99.90
5172;DHT22;2605;49.770;9.868;2023-07-08T06:31:14;20.60;99.90
5172;DHT22;2605;49.770;9.868;2023-07-08T06:33:39;20.70;99.90
5172;DHT22;2605;49.770;9.868;2023-07-08T06:36:05;20.80;99.90
5172;DHT22;2605;49.770;9.868;2023-07-08T06:38:32;21.00;99.90
5172;DHT22;2605;49.770;9.868;2023-07-08T06:40:57;21.10;99.90
5172;DHT22;2605;49.770;9.868;2023-07-08T06:43:23;21.20;99.90
5172;DHT22;2605;49.770;9.868;2023-07-08T06:45:48;21.30;99.90
5172;DHT22;2605;49.770;9.868;2023-07-08T06:48:13;21.40;99.90
5172;DHT22;2605;49.770;9.868;2023-07-08T06:50:47;21.60;99.90
5172;DHT22;2605;49.770;9.868;2023-07-08T06:53:14;21.70;99.90
5172;DHT22;2605;49.770;9.868;2023-07-08T06:55:40;21.80;99.90
5172;DHT22;2605;49.770;9.868;2023-07-08T06:58:05;21.90;99.90
5172;DHT22;2605;49.770;9.868;2023-07-08T07:00:31;22.00;99.90
5172;DHT22;2605;49.770;9.868;2023-07-08T07:02:56;22.20;99.90
5172;DHT22;2605;49.770;9.868;2023-07-08T07:05:22;22.30;99.90
5172;DHT22;2605;49.770;9.868;2023-07-08T07:07:47;22.40;99.90
5172;DHT22;2605;49.770;9.868;2023-07-08T07:10:13;22.50;99.90
5172;DHT22;2605;49.770;9.868;2023-07-08T07:12:38;22.60;99.90
5172;DHT22;2605;49.770;9.868;2023-07-08T07:15:04;22.80;99.90
5172;DHT22;2605;49.770;9.868;2023-07-08T07:17:30;23.00;99.90
5172;DHT22;2605;49.770;9.868;2023-07-08T07:19:56;23.10;99.90
5172;DHT22;2605;49.770;9.868;2023-07-08T07:22:22;23.30;99.90
5172;DHT22;2605;49.770;9.868;2023-07-08T07:24:48;23.50;99.90
5172;DHT22;2605;49.770;9.868;2023-07-08T07:27:13;23.80;99.90
5172;DHT22;2605;49.770;9.868;2023-07-08T07:29:44;24.10;99.90
5172;DHT22;2605;49.770;9.868;2023-07-08T07:32:10;24.30;99.90
5172;DHT22;2605;49.770;9.868;2023-07-08T07:34:36;24.60;99.90
5172;DHT22;2605;49.770;9.868;2023-07-08T07:37:02;24.80;99.90
5172;DHT22;2605;49.770;9.868;2023-07-08T07:39:28;25.10;99.90
5172;DHT22;2605;49.770;9.868;2023-07-08T07:41:54;25.10;99.90
5172;DHT22;2605;49.770;9.868;2023-07-08T07:44:19;25.30;99.90
5172;DHT22;2605;49.770;9.868;2023-07-08T07:46:45;25.40;99.90
5172;DHT22;2605;49.770;9.868;2023-07-08T07:49:12;25.50;99.90
5172;DHT22;2605;49.770;9.868;2023-07-08T07:51:37;25.60;99.90
5172;DHT22;2605;49.770;9.868;2023-07-08T07:54:03;25.80;99.90
5172;DHT22;2605;49.770;9.868;2023-07-08T07:56:28;26.10;99.90
5172;DHT22;2605;49.770;9.868;2023-07-08T07:58:54;26.20;99.90
5172;DHT22;2605;49.770;9.868;2023-07-08T08:01:19;26.60;99.90
5172;DHT22;2605;49.770;9.868;2023-07-08T08:03:45;27.10;99.90
5172;DHT22;2605;49.770;9.868;2023-07-08T08:06:10;27.60;99.90
5172;DHT22;2605;49.770;9.868;2023-07-08T08:08:36;28.00;99.90
5172;DHT22;2605;49.770;9.868;2023-07-08T08:11:01;28.40;99.90
5172;DHT22;2605;49.770;9.868;2023-07-08T08:13:27;28.60;99.90
5172;DHT22;2605;49.770;9.868;2023-07-08T08:15:57;29.00;99.90
5172;DHT22;2605;49.770;9.868;2023-07-08T08:18:23;29.10;99.90
5172;DHT22;2605;49.770;9.868;2023-07-08T08:20:52;29.10;99.90
5172;DHT22;2605;49.770;9.868;2023-07-08T08:23:18;29.20;99.90
5172;DHT22;2605;49.770;9.868;2023-07-08T08:25:43;29.30;99.90
5172;DHT22;2605;49.770;9.868;2023-07-08T08:28:08;29.30;99.90
5172;DHT22;2605;49.770;9.868;2023-07-08T08:30:34;28.90;99.90
5172;DHT22;2605;49.770;9.868;2023-07-08T08:33:00;28.90;99.90
5172;DHT22;2605;49.770;9.868;2023-07-08T08:35:26;29.10;99.90
5172;DHT22;2605;49.770;9.868;2023-07-08T08:37:52;29.10;99.90
5172;DHT22;2605;49.770;9.868;2023-07-08T08:40:19;29.00;99.90
5172;DHT22;2605;49.770;9.868;2023-07-08T08:42:57;29.20;99.90
5172;DHT22;2605;49.770;9.868;2023-07-08T08:45:26;29.20;99.90
5172;DHT22;2605;49.770;9.868;2023-07-08T08:48:03;28.80;99.90
5172;DHT22;2605;49.770;9.868;2023-07-08T08:50:51;28.80;99.90
5172;DHT22;2605;49.770;9.868;2023-07-08T08:53:18;29.00;99.90
5172;DHT22;2605;49.770;9.868;2023-07-08T08:55:49;28.90;99.90
5172;DHT22;2605;49.770;9.868;2023-07-08T09:00:54;29.00;99.90
5172;DHT22;2605;49.770;9.868;2023-07-08T09:03:34;29.10;99.90
5172;DHT22;2605;49.770;9.868;2023-07-08T09:06:10;29.10;99.90
5172;DHT22;2605;49.770;9.868;2023-07-08T09:08:36;29.30;99.90
5172;DHT22;2605;49.770;9.868;2023-07-08T09:13:56;29.50;99.90
5172;DHT22;2605;49.770;9.868;2023-07-08T09:17:08;29.60;99.90
5172;DHT22;2605;49.770;9.868;2023-07-08T09:19:33;29.80;99.90
5172;DHT22;2605;49.770;9.868;2023-07-08T09:22:11;30.00;99.90
5172;DHT22;2605;49.770;9.868;2023-07-08T09:25:02;30.10;99.90
5172;DHT22;2605;49.770;9.868;2023-07-08T09:27:28;30.10;99.90
5172;DHT22;2605;49.770;9.868;2023-07-08T09:29:54;30.20;99.90
5172;DHT22;2605;49.770;9.868;2023-07-08T09:32:23;30.20;99.90
5172;DHT22;2605;49.770;9.868;2023-07-08T09:35:02;30.40;99.90
5172;DHT22;2605;49.770;9.868;2023-07-08T09:37:30;30.30;99.90
5172;DHT22;2605;49.770;9.868;2023-07-08T09:39:58;29.80;99.90
5172;DHT22;2605;49.770;9.868;2023-07-08T09:42:31;29.60;99.90
5172;DHT22;2605;49.770;9.868;2023-07-08T09:44:59;29.60;99.90
5172;DHT22;2605;49.770;9.868;2023-07-08T09:47:29;29.70;99.90
5172;DHT22;2605;49.770;9.868;2023-07-08T09:49:59;29.90;99.90
5172;DHT22;2605;49.770;9.868;2023-07-08T09:52:25;30.10;99.90
5172;DHT22;2605;49.770;9.868;2023-07-08T09:54:50;30.20;99.90
5172;DHT22;2605;49.770;9.868;2023-07-08T09:57:28;30.30;99.90
5172;DHT22;2605;49.770;9.868;2023-07-08T09:59:58;30.60;99.90
5172;DHT22;2605;49.770;9.868;2023-07-08T10:02:45;30.50;99.90
5172;DHT22;2605;49.770;9.868;2023-07-08T10:05:42;30.70;99.90
5172;DHT22;2605;49.770;9.868;2023-07-08T10:08:20;30.80;99.90
5172;DHT22;2605;49.770;9.868;2023-07-08T10:10:48;30.90;99.90
5172;DHT22;2605;49.770;9.868;2023-07-08T10:18:52;31.30;99.90
5172;DHT22;2605;49.770;9.868;2023-07-08T10:21:41;31.20;99.90
5172;DHT22;2605;49.770;9.868;2023-07-08T10:26:46;31.40;99.90
5172;DHT22;2605;49.770;9.868;2023-07-08T10:29:37;31.40;99.90
5172;DHT22;2605;49.770;9.868;2023-07-08T10:32:29;31.40;99.90
5172;DHT22;2605;49.770;9.868;2023-07-08T10:35:16;31.40;99.90
5172;DHT22;2605;49.770;9.868;2023-07-08T10:40:39;31.40;99.90
5172;DHT22;2605;49.770;9.868;2023-07-08T10:43:25;31.40;99.90
5172;DHT22;2605;49.770;9.868;2023-07-08T10:46:49;31.60;99.90
5172;DHT22;2605;49.770;9.868;2023-07-08T10:55:55;31.90;99.90
5172;DHT22;2605;49.770;9.868;2023-07-08T11:01:32;32.10;99.90
5172;DHT22;2605;49.770;9.868;2023-07-08T11:07:47;32.30;99.90
5172;DHT22;2605;49.770;9.868;2023-07-08T11:09:55;32.40;99.90
5172;DHT22;2605;49.770;9.868;2023-07-08T11:12:36;32.40;99.90
5172;DHT22;2605;49.770;9.868;2023-07-08T11:15:25;32.40;99.90
5172;DHT22;2605;49.770;9.868;2023-07-08T11:18:17;32.60;99.90
5172;DHT22;2605;49.770;9.868;2023-07-08T11:20:58;32.60;99.90
5172;DHT22;2605;49.770;9.868;2023-07-08T11:23:35;32.60;99.90
5172;DHT22;2605;49.770;9.868;2023-07-08T11:26:27;32.40;99.90
5172;DHT22;2605;49.770;9.868;2023-07-08T11:28:57;32.20;99.90
5172;DHT22;2605;49.770;9.868;2023-07-08T11:31:25;32.20;99.90
5172;DHT22;2605;49.770;9.868;2023-07-08T11:33:52;32.30;99.90
5172;DHT22;2605;49.770;9.868;2023-07-08T11:36:19;32.40;99.90
5172;DHT22;2605;49.770;9.868;2023-07-08T11:38:49;32.40;99.90
5172;DHT22;2605;49.770;9.868;2023-07-08T11:41:18;32.30;99.90
5172;DHT22;2605;49.770;9.868;2023-07-08T11:43:48;32.40;99.90
5172;DHT22;2605;49.770;9.868;2023-07-08T11:46:19;32.50;99.90
5172;DHT22;2605;49.770;9.868;2023-07-08T11:48:50;32.60;99.90
5172;DHT22;2605;49.770;9.868;2023-07-08T11:51:20;32.70;99.90
5172;DHT22;2605;49.770;9.868;2023-07-08T11:53:50;32.90;99.90
5172;DHT22;2605;49.770;9.868;2023-07-08T11:56:24;32.90;99.90
5172;DHT22;2605;49.770;9.868;2023-07-08T11:58:57;32.90;99.90
5172;DHT22;2605;49.770;9.868;2023-07-08T12:01:31;32.90;99.90
5172;DHT22;2605;49.770;9.868;2023-07-08T12:04:51;32.90;99.90
5172;DHT22;2605;49.770;9.868;2023-07-08T12:06:51;33.00;99.90
5172;DHT22;2605;49.770;9.868;2023-07-08T12:09:27;33.10;99.90
5172;DHT22;2605;49.770;9.868;2023-07-08T12:12:02;33.00;99.90
5172;DHT22;2605;49.770;9.868;2023-07-08T12:14:28;32.50;99.90
5172;DHT22;2605;49.770;9.868;2023-07-08T12:16:55;32.20;99.90
5172;DHT22;2605;49.770;9.868;2023-07-08T12:19:22;31.90;99.90
5172;DHT22;2605;49.770;9.868;2023-07-08T12:21:51;31.90;99.90
5172;DHT22;2605;49.770;9.868;2023-07-08T12:24:18;32.00;99.90
5172;DHT22;2605;49.770;9.868;2023-07-08T12:26:44;32.20;99.90
5172;DHT22;2605;49.770;9.868;2023-07-08T12:29:11;32.60;99.90
5172;DHT22;2605;49.770;9.868;2023-07-08T12:31:39;32.80;99.90
5172;DHT22;2605;49.770;9.868;2023-07-08T12:34:11;33.20;99.90
5172;DHT22;2605;49.770;9.868;2023-07-08T12:36:38;33.50;99.90
5172;DHT22;2605;49.770;9.868;2023-07-08T12:39:05;33.60;99.90
5172;DHT22;2605;49.770;9.868;2023-07-08T12:41:33;34.00;99.90
5172;DHT22;2605;49.770;9.868;2023-07-08T12:44:01;34.20;99.90
5172;DHT22;2605;49.770;9.868;2023-07-08T12:46:28;34.40;99.90
5172;DHT22;2605;49.770;9.868;2023-07-08T12:48:54;34.50;99.90
5172;DHT22;2605;49.770;9.868;2023-07-08T12:51:24;34.30;99.90
5172;DHT22;2605;49.770;9.868;2023-07-08T12:53:51;34.30;99.90
5172;DHT22;2605;49.770;9.868;2023-07-08T12:56:17;34.40;99.90
5172;DHT22;2605;49.770;9.868;2023-07-08T12:58:46;34.40;99.90
5172;DHT22;2605;49.770;9.868;2023-07-08T13:01:20;34.50;99.90
5172;DHT22;2605;49.770;9.868;2023-07-08T13:03:48;34.50;99.90
5172;DHT22;2605;49.770;9.868;2023-07-08T13:06:17;34.80;99.90
5172;DHT22;2605;49.770;9.868;2023-07-08T13:08:45;34.80;99.90
5172;DHT22;2605;49.770;9.868;2023-07-08T13:11:14;34.90;99.90
5172;DHT22;2605;49.770;9.868;2023-07-08T13:13:48;35.10;99.90
5172;DHT22;2605;49.770;9.868;2023-07-08T13:16:15;35.10;99.90
5172;DHT22;2605;49.770;9.868;2023-07-08T13:18:41;35.20;99.90
5172;DHT22;2605;49.770;9.868;2023-07-08T13:21:10;35.20;99.90
5172;DHT22;2605;49.770;9.868;2023-07-08T13:23:36;35.10;99.90
5172;DHT22;2605;49.770;9.868;2023-07-08T13:26:19;35.10;99.90
5172;DHT22;2605;49.770;9.868;2023-07-08T13:28:46;34.80;99.90
5172;DHT22;2605;49.770;9.868;2023-07-08T13:31:20;34.70;99.90
5172;DHT22;2605;49.770;9.868;2023-07-08T13:33:54;34.80;99.90
5172;DHT22;2605;49.770;9.868;2023-07-08T13:36:23;34.70;99.90
5172;DHT22;2605;49.770;9.868;2023-07-08T13:38:50;34.40;99.90
5172;DHT22;2605;49.770;9.868;2023-07-08T13:41:23;33.90;99.90
5172;DHT22;2605;49.770;9.868;2023-07-08T13:43:49;34.00;99.90
5172;DHT22;2605;49.770;9.868;2023-07-08T13:46:38;34.30;99.90
5172;DHT22;2605;49.770;9.868;2023-07-08T13:49:11;34.70;99.90
5172;DHT22;2605;49.770;9.868;2023-07-08T13:51:37;35.00;99.90
5172;DHT22;2605;49.770;9.868;2023-07-08T13:54:21;35.70;99.90
5172;DHT22;2605;49.770;9.868;2023-07-08T13:56:48;37.30;99.90
5172;DHT22;2605;49.770;9.868;2023-07-08T13:59:24;39.40;99.90
5172;DHT22;2605;49.770;9.868;2023-07-08T14:01:53;42.30;99.90
5172;DHT22;2605;49.770;9.868;2023-07-08T14:04:22;44.60;99.90
5172;DHT22;2605;49.770;9.868;2023-07-08T14:06:51;45.30;97.00
5172;DHT22;2605;49.770;9.868;2023-07-08T14:09:19;46.70;95.00
5172;DHT22;2605;49.770;9.868;2023-07-08T14:11:45;48.50;92.20
5172;DHT22;2605;49.770;9.868;2023-07-08T14:14:11;47.00;88.30
5172;DHT22;2605;49.770;9.868;2023-07-08T14:16:42;46.00;90.80
5172;DHT22;2605;49.770;9.868;2023-07-08T14:19:15;48.00;88.50
5172;DHT22;2605;49.770;9.868;2023-07-08T14:21:42;49.80;86.50
5172;DHT22;2605;49.770;9.868;2023-07-08T14:24:14;50.70;83.50
5172;DHT22;2605;49.770;9.868;2023-07-08T14:26:44;52.40;77.60
5172;DHT22;2605;49.770;9.868;2023-07-08T14:29:10;53.30;74.80
5172;DHT22;2605;49.770;9.868;2023-07-08T14:31:36;54.50;69.90
5172;DHT22;2605;49.770;9.868;2023-07-08T14:34:09;56.20;64.20
5172;DHT22;2605;49.770;9.868;2023-07-08T14:36:36;57.90;58.10
5172;DHT22;2605;49.770;9.868;2023-07-08T14:39:11;58.90;53.00
5172;DHT22;2605;49.770;9.868;2023-07-08T14:41:37;59.00;50.60
5172;DHT22;2605;49.770;9.868;2023-07-08T14:44:04;60.10;47.90
5172;DHT22;2605;49.770;9.868;2023-07-08T14:46:33;60.50;45.60
5172;DHT22;2605;49.770;9.868;2023-07-08T14:48:59;59.70;45.80
5172;DHT22;2605;49.770;9.868;2023-07-08T14:51:24;58.10;45.90
5172;DHT22;2605;49.770;9.868;2023-07-08T14:53:49;58.10;45.00
5172;DHT22;2605;49.770;9.868;2023-07-08T14:56:16;55.40;45.40
5172;DHT22;2605;49.770;9.868;2023-07-08T14:58:44;55.60;46.50
5172;DHT22;2605;49.770;9.868;2023-07-08T15:01:18;57.30;46.00
5172;DHT22;2605;49.770;9.868;2023-07-08T15:03:44;58.30;44.40
5172;DHT22;2605;49.770;9.868;2023-07-08T15:06:10;58.50;43.40
5172;DHT22;2605;49.770;9.868;2023-07-08T15:08:36;59.20;42.90
5172;DHT22;2605;49.770;9.868;2023-07-08T15:11:01;59.40;41.60
5172;DHT22;2605;49.770;9.868;2023-07-08T15:13:29;59.70;41.30
5172;DHT22;2605;49.770;9.868;2023-07-08T15:15:55;59.00;39.50
5172;DHT22;2605;49.770;9.868;2023-07-08T15:18:21;59.60;39.80
5172;DHT22;2605;49.770;9.868;2023-07-08T15:20:46;60.10;39.70
5172;DHT22;2605;49.770;9.868;2023-07-08T15:23:12;60.00;38.70
5172;DHT22;2605;49.770;9.868;2023-07-08T15:25:41;58.30;39.30
5172;DHT22;2605;49.770;9.868;2023-07-08T15:28:17;58.90;39.50
5172;DHT22;2605;49.770;9.868;2023-07-08T15:30:43;59.50;38.00
5172;DHT22;2605;49.770;9.868;2023-07-08T15:33:10;59.60;36.70
5172;DHT22;2605;49.770;9.868;2023-07-08T15:35:36;59.50;35.80
5172;DHT22;2605;49.770;9.868;2023-07-08T15:38:01;60.00;36.00
5172;DHT22;2605;49.770;9.868;2023-07-08T15:40:32;60.50;34.90
5172;DHT22;2605;49.770;9.868;2023-07-08T15:43:00;60.20;34.00
5172;DHT22;2605;49.770;9.868;2023-07-08T15:45:34;59.80;35.00
5172;DHT22;2605;49.770;9.868;2023-07-08T15:48:00;60.20;34.50
5172;DHT22;2605;49.770;9.868;2023-07-08T15:50:27;60.20;34.20
5172;DHT22;2605;49.770;9.868;2023-07-08T15:52:53;60.20;33.10
5172;DHT22;2605;49.770;9.868;2023-07-08T15:55:32;59.40;33.30
5172;DHT22;2605;49.770;9.868;2023-07-08T15:58:29;59.20;32.80
5172;DHT22;2605;49.770;9.868;2023-07-08T16:00:57;59.30;33.20
5172;DHT22;2605;49.770;9.868;2023-07-08T16:03:26;59.50;32.20
5172;DHT22;2605;49.770;9.868;2023-07-08T16:05:52;60.00;31.70
5172;DHT22;2605;49.770;9.868;2023-07-08T16:08:18;59.40;31.30
5172;DHT22;2605;49.770;9.868;2023-07-08T16:10:50;59.20;30.20
5172;DHT22;2605;49.770;9.868;2023-07-08T16:13:21;58.80;31.20
5172;DHT22;2605;49.770;9.868;2023-07-08T16:15:48;58.70;30.70
5172;DHT22;2605;49.770;9.868;2023-07-08T16:18:13;59.40;31.20
5172;DHT22;2605;49.770;9.868;2023-07-08T16:20:39;59.20;31.20
5172;DHT22;2605;49.770;9.868;2023-07-08T16:23:04;57.80;32.70
5172;DHT22;2605;49.770;9.868;2023-07-08T16:25:34;57.80;32.60
5172;DHT22;2605;49.770;9.868;2023-07-08T16:28:01;58.00;32.20
5172;DHT22;2605;49.770;9.868;2023-07-08T16:30:27;57.70;32.20
5172;DHT22;2605;49.770;9.868;2023-07-08T16:32:53;57.10;32.70
5172;DHT22;2605;49.770;9.868;2023-07-08T16:35:20;56.70;33.50
5172;DHT22;2605;49.770;9.868;2023-07-08T16:37:53;56.40;34.10
5172;DHT22;2605;49.770;9.868;2023-07-08T16:40:24;56.80;34.20
5172;DHT22;2605;49.770;9.868;2023-07-08T16:42:53;56.90;34.10
5172;DHT22;2605;49.770;9.868;2023-07-08T16:45:19;57.30;33.10
5172;DHT22;2605;49.770;9.868;2023-07-08T16:47:46;57.20;33.10
5172;DHT22;2605;49.770;9.868;2023-07-08T16:50:15;56.70;33.20
5172;DHT22;2605;49.770;9.868;2023-07-08T16:52:41;55.70;33.60